sensor_id;sensor_type;location;lat;lon;timestamp;P1;durP1;ratioP1;P2;durP2;ratioP2
19776;SDS011;10047;42.490;26.012;2022-12-29T00:02:19;18.60;;;10.10;;
19776;SDS011;10047;42.490;26.012;2022-12-29T00:04:44;17.67;;;9.85;;
19776;SDS011;10047;42.490;26.012;2022-12-29T00:07:10;18.70;;;9.52;;
19776;SDS011;10047;42.490;26.012;2022-12-29T00:09:35;16.38;;;10.15;;
19776;SDS011;10047;42.490;26.012;2022-12-29T00:12:02;19.83;;;9.63;;
19776;SDS011;10047;42.490;26.012;2022-12-29T00:14:29;19.77;;;10.18;;
19776;SDS011;10047;42.490;26.012;2022-12-29T00:17:13;19.02;;;10.68;;
19776;SDS011;10047;42.490;26.012;2022-12-29T00:19:39;16.45;;;9.77;;
19776;SDS011;10047;42.490;26.012;2022-12-29T00:22:23;19.92;;;11.15;;
19776;SDS011;10047;42.490;26.012;2022-12-29T00:25:08;48.20;;;18.40;;
19776;SDS011;10047;42.490;26.012;2022-12-29T00:27:53;27.83;;;15.13;;
19776;SDS011;10047;42.490;26.012;2022-12-29T00:30:37;30.70;;;16.48;;
19776;SDS011;10047;42.490;26.012;2022-12-29T00:33:21;26.65;;;15.70;;
19776;SDS011;10047;42.490;26.012;2022-12-29T00:38:45;26.55;;;14.02;;
19776;SDS011;10047;42.490;26.012;2022-12-29T00:41:32;19.00;;;11.68;;
19776;SDS011;10047;42.490;26.012;2022-12-29T00:44:16;21.52;;;11.43;;
19776;SDS011;10047;42.490;26.012;2022-12-29T00:46:42;20.95;;;11.05;;
19776;SDS011;10047;42.490;26.012;2022-12-29T00:49:09;17.23;;;9.70;;
19776;SDS011;10047;42.490;26.012;2022-12-29T00:51:56;17.15;;;10.23;;
19776;SDS011;10047;42.490;26.012;2022-12-29T00:54:27;17.52;;;9.52;;
19776;SDS011;10047;42.490;26.012;2022-12-29T00:56:54;15.68;;;9.30;;
19776;SDS011;10047;42.490;26.012;2022-12-29T00:59:19;16.30;;;8.30;;
19776;SDS011;10047;42.490;26.012;2022-12-29T01:01:45;16.25;;;8.65;;
19776;SDS011;10047;42.490;26.012;2022-12-29T01:04:11;15.95;;;8.18;;
19776;SDS011;10047;42.490;26.012;2022-12-29T01:06:38;16.23;;;9.20;;
19776;SDS011;10047;42.490;26.012;2022-12-29T01:09:05;16.23;;;8.75;;
19776;SDS011;10047;42.490;26.012;2022-12-29T01:11:49;14.43;;;8.82;;
19776;SDS011;10047;42.490;26.012;2022-12-29T01:14:15;17.20;;;8.77;;
19776;SDS011;10047;42.490;26.012;2022-12-29T01:16:41;16.60;;;9.40;;
19776;SDS011;10047;42.490;26.012;2022-12-29T01:19:06;17.13;;;9.43;;
19776;SDS011;10047;42.490;26.012;2022-12-29T01:21:32;18.60;;;9.40;;
19776;SDS011;10047;42.490;26.012;2022-12-29T01:23:58;16.05;;;9.07;;
19776;SDS011;10047;42.490;26.012;2022-12-29T01:26:23;18.15;;;10.25;;
19776;SDS011;10047;42.490;26.012;2022-12-29T01:28:51;18.38;;;10.88;;
19776;SDS011;10047;42.490;26.012;2022-12-29T01:31:16;19.48;;;10.77;;
19776;SDS011;10047;42.490;26.012;2022-12-29T01:33:42;19.98;;;10.07;;
19776;SDS011;10047;42.490;26.012;2022-12-29T01:36:10;17.38;;;10.38;;
19776;SDS011;10047;42.490;26.012;2022-12-29T01:38:37;18.67;;;10.30;;
19776;SDS011;10047;42.490;26.012;2022-12-29T01:41:03;18.45;;;9.82;;
19776;SDS011;10047;42.490;26.012;2022-12-29T01:51:36;17.75;;;10.05;;
19776;SDS011;10047;42.490;26.012;2022-12-29T01:54:07;19.00;;;10.50;;
19776;SDS011;10047;42.490;26.012;2022-12-29T01:56:36;26.00;;;13.02;;
19776;SDS011;10047;42.490;26.012;2022-12-29T01:59:04;23.13;;;13.48;;
19776;SDS011;10047;42.490;26.012;2022-12-29T02:01:37;31.45;;;16.85;;
19776;SDS011;10047;42.490;26.012;2022-12-29T02:04:02;24.73;;;16.20;;
19776;SDS011;10047;42.490;26.012;2022-12-29T02:06:35;23.08;;;15.52;;
19776;SDS011;10047;42.490;26.012;2022-12-29T02:09:05;23.80;;;14.65;;
19776;SDS011;10047;42.490;26.012;2022-12-29T02:11:31;28.15;;;15.15;;
19776;SDS011;10047;42.490;26.012;2022-12-29T02:13:57;28.33;;;14.10;;
19776;SDS011;10047;42.490;26.012;2022-12-29T02:22:27;25.50;;;14.82;;
19776;SDS011;10047;42.490;26.012;2022-12-29T02:30:38;25.35;;;11.90;;
19776;SDS011;10047;42.490;26.012;2022-12-29T02:38:49;25.08;;;13.43;;
19776;SDS011;10047;42.490;26.012;2022-12-29T02:44:16;22.23;;;13.27;;
19776;SDS011;10047;42.490;26.012;2022-12-29T02:47:18;25.17;;;13.13;;
19776;SDS011;10047;42.490;26.012;2022-12-29T02:49:49;24.15;;;12.95;;
19776;SDS011;10047;42.490;26.012;2022-12-29T02:52:25;27.90;;;14.45;;
19776;SDS011;10047;42.490;26.012;2022-12-29T02:54:57;23.17;;;13.93;;
19776;SDS011;10047;42.490;26.012;2022-12-29T03:00:05;24.50;;;14.85;;
19776;SDS011;10047;42.490;26.012;2022-12-29T03:08:28;22.17;;;12.40;;
19776;SDS011;10047;42.490;26.012;2022-12-29T03:14:13;17.63;;;11.43;;
19776;SDS011;10047;42.490;26.012;2022-12-29T03:17:23;19.90;;;10.65;;
19776;SDS011;10047;42.490;26.012;2022-12-29T03:19:51;19.80;;;10.80;;
19776;SDS011;10047;42.490;26.012;2022-12-29T03:22:23;17.60;;;10.77;;
19776;SDS011;10047;42.490;26.012;2022-12-29T03:25:10;22.30;;;13.07;;
19776;SDS011;10047;42.490;26.012;2022-12-29T03:27:50;21.52;;;12.07;;
19776;SDS011;10047;42.490;26.012;2022-12-29T03:30:20;16.67;;;8.63;;
19776;SDS011;10047;42.490;26.012;2022-12-29T03:32:54;19.65;;;11.05;;
19776;SDS011;10047;42.490;26.012;2022-12-29T03:35:24;22.10;;;13.02;;
19776;SDS011;10047;42.490;26.012;2022-12-29T03:37:53;22.00;;;13.18;;
19776;SDS011;10047;42.490;26.012;2022-12-29T03:40:24;23.40;;;12.20;;
19776;SDS011;10047;42.490;26.012;2022-12-29T03:42:52;23.33;;;14.60;;
19776;SDS011;10047;42.490;26.012;2022-12-29T03:45:18;22.73;;;14.38;;
19776;SDS011;10047;42.490;26.012;2022-12-29T03:47:44;16.83;;;8.68;;
19776;SDS011;10047;42.490;26.012;2022-12-29T03:50:11;16.52;;;9.38;;
19776;SDS011;10047;42.490;26.012;2022-12-29T03:52:37;20.33;;;10.45;;
19776;SDS011;10047;42.490;26.012;2022-12-29T03:55:02;13.60;;;9.10;;
19776;SDS011;10047;42.490;26.012;2022-12-29T03:57:28;20.50;;;11.23;;
19776;SDS011;10047;42.490;26.012;2022-12-29T03:59:54;20.70;;;12.38;;
19776;SDS011;10047;42.490;26.012;2022-12-29T04:02:19;17.00;;;10.68;;
19776;SDS011;10047;42.490;26.012;2022-12-29T04:04:44;21.50;;;10.15;;
19776;SDS011;10047;42.490;26.012;2022-12-29T04:07:10;16.98;;;10.38;;
19776;SDS011;10047;42.490;26.012;2022-12-29T04:09:35;18.80;;;8.35;;
19776;SDS011;10047;42.490;26.012;2022-12-29T04:12:01;13.75;;;7.95;;
19776;SDS011;10047;42.490;26.012;2022-12-29T04:14:26;15.38;;;8.23;;
19776;SDS011;10047;42.490;26.012;2022-12-29T04:16:51;18.50;;;8.88;;
19776;SDS011;10047;42.490;26.012;2022-12-29T04:19:17;23.63;;;12.80;;
19776;SDS011;10047;42.490;26.012;2022-12-29T04:21:42;18.92;;;12.85;;
19776;SDS011;10047;42.490;26.012;2022-12-29T04:24:08;20.83;;;12.50;;
19776;SDS011;10047;42.490;26.012;2022-12-29T04:26:33;17.83;;;10.80;;
19776;SDS011;10047;42.490;26.012;2022-12-29T04:28:59;22.60;;;10.85;;
19776;SDS011;10047;42.490;26.012;2022-12-29T04:31:24;22.00;;;10.45;;
19776;SDS011;10047;42.490;26.012;2022-12-29T04:33:50;18.95;;;10.80;;
19776;SDS011;10047;42.490;26.012;2022-12-29T04:36:15;23.50;;;10.80;;
19776;SDS011;10047;42.490;26.012;2022-12-29T04:38:41;23.30;;;12.07;;
19776;SDS011;10047;42.490;26.012;2022-12-29T04:41:06;27.27;;;12.55;;
19776;SDS011;10047;42.490;26.012;2022-12-29T04:43:32;19.90;;;11.15;;
19776;SDS011;10047;42.490;26.012;2022-12-29T04:45:57;18.52;;;11.38;;
19776;SDS011;10047;42.490;26.012;2022-12-29T04:48:23;19.67;;;12.20;;
19776;SDS011;10047;42.490;26.012;2022-12-29T04:50:48;22.17;;;12.65;;
19776;SDS011;10047;42.490;26.012;2022-12-29T04:53:14;23.27;;;13.48;;
19776;SDS011;10047;42.490;26.012;2022-12-29T04:55:41;29.33;;;15.00;;
19776;SDS011;10047;42.490;26.012;2022-12-29T04:58:07;27.33;;;15.13;;
19776;SDS011;10047;42.490;26.012;2022-12-29T05:00:32;25.48;;;15.02;;
19776;SDS011;10047;42.490;26.012;2022-12-29T05:02:58;28.83;;;18.95;;
19776;SDS011;10047;42.490;26.012;2022-12-29T05:05:24;32.03;;;21.30;;
19776;SDS011;10047;42.490;26.012;2022-12-29T05:07:49;34.15;;;21.90;;
19776;SDS011;10047;42.490;26.012;2022-12-29T05:10:15;33.50;;;21.92;;
19776;SDS011;10047;42.490;26.012;2022-12-29T05:12:40;32.58;;;22.38;;
19776;SDS011;10047;42.490;26.012;2022-12-29T05:15:06;30.17;;;19.75;;
19776;SDS011;10047;42.490;26.012;2022-12-29T05:20:45;40.08;;;25.17;;
19776;SDS011;10047;42.490;26.012;2022-12-29T05:23:11;37.15;;;23.45;;
19776;SDS011;10047;42.490;26.012;2022-12-29T05:25:36;31.92;;;21.33;;
19776;SDS011;10047;42.490;26.012;2022-12-29T05:28:06;39.83;;;25.40;;
19776;SDS011;10047;42.490;26.012;2022-12-29T05:30:31;79.32;;;49.67;;
19776;SDS011;10047;42.490;26.012;2022-12-29T05:32:57;62.60;;;43.90;;
19776;SDS011;10047;42.490;26.012;2022-12-29T05:35:22;61.35;;;41.58;;
19776;SDS011;10047;42.490;26.012;2022-12-29T05:37:48;66.57;;;43.42;;
19776;SDS011;10047;42.490;26.012;2022-12-29T05:40:13;59.08;;;38.00;;
19776;SDS011;10047;42.490;26.012;2022-12-29T05:42:38;48.20;;;33.80;;
19776;SDS011;10047;42.490;26.012;2022-12-29T05:45:04;47.25;;;32.80;;
19776;SDS011;10047;42.490;26.012;2022-12-29T05:47:32;51.38;;;36.42;;
19776;SDS011;10047;42.490;26.012;2022-12-29T05:49:57;54.17;;;37.22;;
19776;SDS011;10047;42.490;26.012;2022-12-29T05:55:07;50.50;;;33.42;;
19776;SDS011;10047;42.490;26.012;2022-12-29T05:57:33;49.22;;;32.25;;
19776;SDS011;10047;42.490;26.012;2022-12-29T05:59:58;44.72;;;27.98;;
19776;SDS011;10047;42.490;26.012;2022-12-29T06:02:23;35.67;;;23.83;;
19776;SDS011;10047;42.490;26.012;2022-12-29T06:04:49;31.35;;;22.38;;
19776;SDS011;10047;42.490;26.012;2022-12-29T06:07:14;24.98;;;17.50;;
19776;SDS011;10047;42.490;26.012;2022-12-29T06:09:40;28.67;;;17.08;;
19776;SDS011;10047;42.490;26.012;2022-12-29T06:12:05;26.92;;;17.92;;
19776;SDS011;10047;42.490;26.012;2022-12-29T06:14:31;22.85;;;16.63;;
19776;SDS011;10047;42.490;26.012;2022-12-29T06:16:56;31.60;;;19.15;;
19776;SDS011;10047;42.490;26.012;2022-12-29T06:19:22;29.70;;;22.40;;
19776;SDS011;10047;42.490;26.012;2022-12-29T06:21:47;44.45;;;29.48;;
19776;SDS011;10047;42.490;26.012;2022-12-29T06:24:12;49.17;;;35.22;;
19776;SDS011;10047;42.490;26.012;2022-12-29T06:26:38;55.13;;;38.47;;
19776;SDS011;10047;42.490;26.012;2022-12-29T06:29:05;57.92;;;42.60;;
19776;SDS011;10047;42.490;26.012;2022-12-29T06:31:33;59.08;;;44.53;;
19776;SDS011;10047;42.490;26.012;2022-12-29T06:33:58;60.42;;;44.45;;
19776;SDS011;10047;42.490;26.012;2022-12-29T06:36:23;56.40;;;39.85;;
19776;SDS011;10047;42.490;26.012;2022-12-29T06:38:49;56.80;;;37.70;;
19776;SDS011;10047;42.490;26.012;2022-12-29T06:41:17;54.55;;;37.65;;
19776;SDS011;10047;42.490;26.012;2022-12-29T06:43:43;49.50;;;34.15;;
19776;SDS011;10047;42.490;26.012;2022-12-29T06:46:08;46.05;;;33.38;;
19776;SDS011;10047;42.490;26.012;2022-12-29T06:48:33;49.05;;;34.38;;
19776;SDS011;10047;42.490;26.012;2022-12-29T06:50:59;115.90;;;79.32;;
19776;SDS011;10047;42.490;26.012;2022-12-29T06:53:24;91.57;;;57.78;;
19776;SDS011;10047;42.490;26.012;2022-12-29T06:55:50;60.65;;;44.13;;
19776;SDS011;10047;42.490;26.012;2022-12-29T06:58:15;71.53;;;49.38;;
19776;SDS011;10047;42.490;26.012;2022-12-29T07:00:41;57.88;;;43.00;;
19776;SDS011;10047;42.490;26.012;2022-12-29T07:03:06;54.38;;;37.70;;
19776;SDS011;10047;42.490;26.012;2022-12-29T07:05:31;53.95;;;38.72;;
19776;SDS011;10047;42.490;26.012;2022-12-29T07:07:57;49.92;;;39.03;;
19776;SDS011;10047;42.490;26.012;2022-12-29T07:10:23;60.42;;;45.25;;
19776;SDS011;10047;42.490;26.012;2022-12-29T07:12:49;59.40;;;43.53;;
19776;SDS011;10047;42.490;26.012;2022-12-29T07:15:15;65.93;;;45.95;;
19776;SDS011;10047;42.490;26.012;2022-12-29T07:17:41;83.78;;;55.88;;
19776;SDS011;10047;42.490;26.012;2022-12-29T07:20:07;88.40;;;60.45;;
19776;SDS011;10047;42.490;26.012;2022-12-29T07:22:33;75.22;;;52.75;;
19776;SDS011;10047;42.490;26.012;2022-12-29T07:24:58;47.67;;;33.67;;
19776;SDS011;10047;42.490;26.012;2022-12-29T07:27:23;42.30;;;29.20;;
19776;SDS011;10047;42.490;26.012;2022-12-29T07:29:49;54.38;;;38.45;;
19776;SDS011;10047;42.490;26.012;2022-12-29T07:32:14;52.05;;;34.17;;
19776;SDS011;10047;42.490;26.012;2022-12-29T07:34:40;41.55;;;29.38;;
19776;SDS011;10047;42.490;26.012;2022-12-29T07:37:05;33.15;;;24.13;;
19776;SDS011;10047;42.490;26.012;2022-12-29T07:39:31;36.20;;;22.95;;
19776;SDS011;10047;42.490;26.012;2022-12-29T07:41:56;32.58;;;21.52;;
19776;SDS011;10047;42.490;26.012;2022-12-29T07:44:22;28.52;;;18.50;;
19776;SDS011;10047;42.490;26.012;2022-12-29T07:46:47;26.65;;;16.70;;
19776;SDS011;10047;42.490;26.012;2022-12-29T07:49:13;24.10;;;14.88;;
19776;SDS011;10047;42.490;26.012;2022-12-29T07:51:38;24.20;;;14.65;;
19776;SDS011;10047;42.490;26.012;2022-12-29T07:54:03;23.23;;;14.82;;
19776;SDS011;10047;42.490;26.012;2022-12-29T07:56:29;23.00;;;12.52;;
19776;SDS011;10047;42.490;26.012;2022-12-29T07:58:54;23.48;;;13.43;;
19776;SDS011;10047;42.490;26.012;2022-12-29T08:01:20;24.15;;;15.20;;
19776;SDS011;10047;42.490;26.012;2022-12-29T08:03:46;23.80;;;13.57;;
19776;SDS011;10047;42.490;26.012;2022-12-29T08:06:12;20.27;;;13.57;;
19776;SDS011;10047;42.490;26.012;2022-12-29T08:08:38;23.42;;;15.98;;
19776;SDS011;10047;42.490;26.012;2022-12-29T08:11:03;24.70;;;14.20;;
19776;SDS011;10047;42.490;26.012;2022-12-29T08:13:29;19.60;;;11.77;;
19776;SDS011;10047;42.490;26.012;2022-12-29T08:15:54;19.55;;;11.48;;
19776;SDS011;10047;42.490;26.012;2022-12-29T08:18:20;33.90;;;22.15;;
19776;SDS011;10047;42.490;26.012;2022-12-29T08:20:45;33.30;;;22.63;;
19776;SDS011;10047;42.490;26.012;2022-12-29T08:23:11;20.75;;;12.38;;
19776;SDS011;10047;42.490;26.012;2022-12-29T08:25:36;32.53;;;17.85;;
19776;SDS011;10047;42.490;26.012;2022-12-29T08:28:01;30.45;;;18.15;;
19776;SDS011;10047;42.490;26.012;2022-12-29T08:30:27;24.17;;;15.07;;
19776;SDS011;10047;42.490;26.012;2022-12-29T08:32:52;22.85;;;14.77;;
19776;SDS011;10047;42.490;26.012;2022-12-29T08:35:18;23.50;;;13.90;;
19776;SDS011;10047;42.490;26.012;2022-12-29T08:37:43;18.60;;;11.77;;
19776;SDS011;10047;42.490;26.012;2022-12-29T08:40:09;21.73;;;14.57;;
19776;SDS011;10047;42.490;26.012;2022-12-29T08:42:34;19.50;;;13.02;;
19776;SDS011;10047;42.490;26.012;2022-12-29T08:45:00;23.55;;;12.93;;
19776;SDS011;10047;42.490;26.012;2022-12-29T08:47:26;21.25;;;12.13;;
19776;SDS011;10047;42.490;26.012;2022-12-29T08:49:51;17.30;;;10.90;;
19776;SDS011;10047;42.490;26.012;2022-12-29T08:52:17;18.80;;;11.07;;
19776;SDS011;10047;42.490;26.012;2022-12-29T08:54:43;21.95;;;11.38;;
19776;SDS011;10047;42.490;26.012;2022-12-29T08:57:08;19.70;;;12.25;;
19776;SDS011;10047;42.490;26.012;2022-12-29T08:59:34;17.10;;;10.88;;
19776;SDS011;10047;42.490;26.012;2022-12-29T09:01:59;16.35;;;10.45;;
19776;SDS011;10047;42.490;26.012;2022-12-29T09:04:26;99.25;;;73.00;;
19776;SDS011;10047;42.490;26.012;2022-12-29T09:06:52;129.85;;;84.15;;
19776;SDS011;10047;42.490;26.012;2022-12-29T09:09:17;36.13;;;21.25;;
19776;SDS011;10047;42.490;26.012;2022-12-29T09:11:43;32.03;;;18.23;;
19776;SDS011;10047;42.490;26.012;2022-12-29T09:14:09;48.15;;;25.42;;
19776;SDS011;10047;42.490;26.012;2022-12-29T09:16:35;67.80;;;35.35;;
19776;SDS011;10047;42.490;26.012;2022-12-29T09:19:01;35.50;;;21.10;;
19776;SDS011;10047;42.490;26.012;2022-12-29T09:21:27;51.17;;;29.67;;
19776;SDS011;10047;42.490;26.012;2022-12-29T09:23:52;35.03;;;21.85;;
19776;SDS011;10047;42.490;26.012;2022-12-29T09:26:18;23.40;;;12.07;;
19776;SDS011;10047;42.490;26.012;2022-12-29T09:28:43;19.98;;;10.38;;
19776;SDS011;10047;42.490;26.012;2022-12-29T09:31:09;19.45;;;10.15;;
19776;SDS011;10047;42.490;26.012;2022-12-29T09:33:35;20.60;;;10.63;;
19776;SDS011;10047;42.490;26.012;2022-12-29T09:36:00;18.42;;;11.07;;
19776;SDS011;10047;42.490;26.012;2022-12-29T09:38:26;21.95;;;11.43;;
19776;SDS011;10047;42.490;26.012;2022-12-29T09:41:14;26.00;;;13.90;;
19776;SDS011;10047;42.490;26.012;2022-12-29T09:48:51;48.55;;;24.60;;
19776;SDS011;10047;42.490;26.012;2022-12-29T09:51:32;21.75;;;11.93;;
19776;SDS011;10047;42.490;26.012;2022-12-29T09:54:09;19.50;;;12.40;;
19776;SDS011;10047;42.490;26.012;2022-12-29T09:56:59;19.10;;;12.52;;
19776;SDS011;10047;42.490;26.012;2022-12-29T09:59:27;21.25;;;13.57;;
19776;SDS011;10047;42.490;26.012;2022-12-29T10:04:40;27.98;;;15.63;;
19776;SDS011;10047;42.490;26.012;2022-12-29T10:17:36;29.48;;;15.55;;
19776;SDS011;10047;42.490;26.012;2022-12-29T10:25:52;22.60;;;16.02;;
19776;SDS011;10047;42.490;26.012;2022-12-29T10:28:23;19.58;;;15.02;;
19776;SDS011;10047;42.490;26.012;2022-12-29T10:30:59;22.88;;;17.45;;
19776;SDS011;10047;42.490;26.012;2022-12-29T10:33:30;21.15;;;15.88;;
19776;SDS011;10047;42.490;26.012;2022-12-29T10:36:02;20.63;;;15.82;;
19776;SDS011;10047;42.490;26.012;2022-12-29T10:41:38;22.40;;;16.50;;
19776;SDS011;10047;42.490;26.012;2022-12-29T10:44:30;25.48;;;18.50;;
19776;SDS011;10047;42.490;26.012;2022-12-29T10:47:02;29.05;;;20.23;;
19776;SDS011;10047;42.490;26.012;2022-12-29T10:49:30;24.75;;;19.95;;
19776;SDS011;10047;42.490;26.012;2022-12-29T10:52:02;27.70;;;18.67;;
19776;SDS011;10047;42.490;26.012;2022-12-29T10:57:11;42.65;;;25.17;;
19776;SDS011;10047;42.490;26.012;2022-12-29T10:59:46;29.33;;;19.65;;
19776;SDS011;10047;42.490;26.012;2022-12-29T11:07:41;22.67;;;17.65;;
19776;SDS011;10047;42.490;26.012;2022-12-29T11:10:17;22.15;;;18.02;;
19776;SDS011;10047;42.490;26.012;2022-12-29T11:13:12;22.50;;;17.75;;
19776;SDS011;10047;42.490;26.012;2022-12-29T11:15:41;24.48;;;17.17;;
19776;SDS011;10047;42.490;26.012;2022-12-29T11:18:18;26.33;;;17.40;;
19776;SDS011;10047;42.490;26.012;2022-12-29T11:20:44;25.65;;;18.50;;
19776;SDS011;10047;42.490;26.012;2022-12-29T11:28:38;28.02;;;21.10;;
19776;SDS011;10047;42.490;26.012;2022-12-29T11:31:06;43.70;;;37.20;;
19776;SDS011;10047;42.490;26.012;2022-12-29T11:33:33;30.17;;;20.35;;
19776;SDS011;10047;42.490;26.012;2022-12-29T11:36:07;27.25;;;18.65;;
19776;SDS011;10047;42.490;26.012;2022-12-29T11:38:37;22.90;;;16.23;;
19776;SDS011;10047;42.490;26.012;2022-12-29T11:41:05;24.88;;;18.90;;
19776;SDS011;10047;42.490;26.012;2022-12-29T11:43:40;24.45;;;17.33;;
19776;SDS011;10047;42.490;26.012;2022-12-29T11:46:13;35.95;;;30.52;;
19776;SDS011;10047;42.490;26.012;2022-12-29T11:48:41;22.60;;;17.55;;
19776;SDS011;10047;42.490;26.012;2022-12-29T11:51:07;20.55;;;16.73;;
19776;SDS011;10047;42.490;26.012;2022-12-29T11:56:15;21.48;;;16.65;;
19776;SDS011;10047;42.490;26.012;2022-12-29T11:58:42;23.90;;;17.52;;
19776;SDS011;10047;42.490;26.012;2022-12-29T12:01:13;22.23;;;16.60;;
19776;SDS011;10047;42.490;26.012;2022-12-29T12:03:56;19.90;;;15.35;;
19776;SDS011;10047;42.490;26.012;2022-12-29T12:06:27;17.67;;;15.02;;
19776;SDS011;10047;42.490;26.012;2022-12-29T12:08:56;22.67;;;16.05;;
19776;SDS011;10047;42.490;26.012;2022-12-29T12:14:14;22.02;;;15.98;;
19776;SDS011;10047;42.490;26.012;2022-12-29T12:16:55;19.25;;;15.18;;
19776;SDS011;10047;42.490;26.012;2022-12-29T12:19:41;33.30;;;22.65;;
19776;SDS011;10047;42.490;26.012;2022-12-29T12:25:34;22.88;;;18.83;;
19776;SDS011;10047;42.490;26.012;2022-12-29T12:28:08;21.73;;;16.90;;
19776;SDS011;10047;42.490;26.012;2022-12-29T12:30:45;25.60;;;19.77;;
19776;SDS011;10047;42.490;26.012;2022-12-29T12:33:22;19.67;;;15.63;;
19776;SDS011;10047;42.490;26.012;2022-12-29T12:44:32;20.65;;;15.98;;
19776;SDS011;10047;42.490;26.012;2022-12-29T12:52:52;21.02;;;16.80;;
19776;SDS011;10047;42.490;26.012;2022-12-29T13:00:48;39.95;;;34.17;;
19776;SDS011;10047;42.490;26.012;2022-12-29T13:06:35;23.33;;;16.75;;
19776;SDS011;10047;42.490;26.012;2022-12-29T13:25:24;26.98;;;21.98;;
19776;SDS011;10047;42.490;26.012;2022-12-29T13:28:02;30.40;;;23.85;;
19776;SDS011;10047;42.490;26.012;2022-12-29T13:30:39;25.73;;;20.45;;
19776;SDS011;10047;42.490;26.012;2022-12-29T13:33:28;20.15;;;16.83;;
19776;SDS011;10047;42.490;26.012;2022-12-29T13:38:48;22.35;;;18.10;;
19776;SDS011;10047;42.490;26.012;2022-12-29T13:41:59;22.08;;;17.08;;
19776;SDS011;10047;42.490;26.012;2022-12-29T13:44:14;56.60;;;41.70;;
19776;SDS011;10047;42.490;26.012;2022-12-29T13:46:45;40.60;;;35.47;;
19776;SDS011;10047;42.490;26.012;2022-12-29T13:49:13;60.90;;;54.47;;
19776;SDS011;10047;42.490;26.012;2022-12-29T13:51:41;48.35;;;43.17;;
19776;SDS011;10047;42.490;26.012;2022-12-29T13:54:17;36.45;;;32.60;;
19776;SDS011;10047;42.490;26.012;2022-12-29T13:57:02;41.85;;;29.08;;
19776;SDS011;10047;42.490;26.012;2022-12-29T13:59:52;31.35;;;25.55;;
19776;SDS011;10047;42.490;26.012;2022-12-29T14:04:56;27.85;;;20.48;;
19776;SDS011;10047;42.490;26.012;2022-12-29T14:07:27;28.02;;;21.73;;
19776;SDS011;10047;42.490;26.012;2022-12-29T14:09:55;28.90;;;22.38;;
19776;SDS011;10047;42.490;26.012;2022-12-29T14:15:12;28.60;;;21.70;;
19776;SDS011;10047;42.490;26.012;2022-12-29T14:17:44;33.90;;;23.85;;
19776;SDS011;10047;42.490;26.012;2022-12-29T14:20:37;38.03;;;27.73;;
19776;SDS011;10047;42.490;26.012;2022-12-29T14:25:56;35.03;;;27.40;;
19776;SDS011;10047;42.490;26.012;2022-12-29T14:28:29;33.42;;;24.52;;
19776;SDS011;10047;42.490;26.012;2022-12-29T14:30:58;42.90;;;28.30;;
19776;SDS011;10047;42.490;26.012;2022-12-29T14:33:26;39.20;;;26.90;;
19776;SDS011;10047;42.490;26.012;2022-12-29T14:35:54;43.35;;;28.42;;
19776;SDS011;10047;42.490;26.012;2022-12-29T14:38:24;38.65;;;25.83;;
19776;SDS011;10047;42.490;26.012;2022-12-29T14:40:52;37.28;;;26.90;;
19776;SDS011;10047;42.490;26.012;2022-12-29T14:43:38;46.90;;;34.70;;
19776;SDS011;10047;42.490;26.012;2022-12-29T14:46:03;47.38;;;33.13;;
19776;SDS011;10047;42.490;26.012;2022-12-29T14:48:34;46.42;;;30.17;;
19776;SDS011;10047;42.490;26.012;2022-12-29T14:51:16;43.28;;;30.35;;
19776;SDS011;10047;42.490;26.012;2022-12-29T14:53:45;60.17;;;35.27;;
19776;SDS011;10047;42.490;26.012;2022-12-29T14:56:20;42.95;;;31.52;;
19776;SDS011;10047;42.490;26.012;2022-12-29T14:58:54;47.97;;;32.22;;
19776;SDS011;10047;42.490;26.012;2022-12-29T15:04:13;49.38;;;32.20;;
19776;SDS011;10047;42.490;26.012;2022-12-29T15:06:42;51.10;;;31.85;;
19776;SDS011;10047;42.490;26.012;2022-12-29T15:09:16;49.75;;;32.90;;
19776;SDS011;10047;42.490;26.012;2022-12-29T15:17:54;51.75;;;34.50;;
19776;SDS011;10047;42.490;26.012;2022-12-29T15:20:27;56.15;;;36.03;;
19776;SDS011;10047;42.490;26.012;2022-12-29T15:22:56;51.05;;;35.47;;
19776;SDS011;10047;42.490;26.012;2022-12-29T15:25:33;57.15;;;35.65;;
19776;SDS011;10047;42.490;26.012;2022-12-29T15:28:02;62.03;;;38.17;;
19776;SDS011;10047;42.490;26.012;2022-12-29T15:30:30;58.05;;;38.00;;
19776;SDS011;10047;42.490;26.012;2022-12-29T15:32:55;58.30;;;37.67;;
19776;SDS011;10047;42.490;26.012;2022-12-29T15:35:33;61.92;;;41.95;;
19776;SDS011;10047;42.490;26.012;2022-12-29T15:38:00;63.65;;;42.92;;
19776;SDS011;10047;42.490;26.012;2022-12-29T15:40:43;61.13;;;40.38;;
19776;SDS011;10047;42.490;26.012;2022-12-29T15:45:50;66.15;;;45.70;;
19776;SDS011;10047;42.490;26.012;2022-12-29T15:48:19;65.63;;;45.85;;
19776;SDS011;10047;42.490;26.012;2022-12-29T15:50:47;68.60;;;49.67;;
19776;SDS011;10047;42.490;26.012;2022-12-29T15:53:23;78.53;;;55.72;;
19776;SDS011;10047;42.490;26.012;2022-12-29T15:55:55;89.73;;;59.03;;
19776;SDS011;10047;42.490;26.012;2022-12-29T15:58:27;93.10;;;61.28;;
19776;SDS011;10047;42.490;26.012;2022-12-29T16:00:56;99.72;;;68.28;;
19776;SDS011;10047;42.490;26.012;2022-12-29T16:03:27;104.63;;;69.20;;
19776;SDS011;10047;42.490;26.012;2022-12-29T16:05:57;123.90;;;79.40;;
19776;SDS011;10047;42.490;26.012;2022-12-29T16:08:34;122.10;;;80.22;;
19776;SDS011;10047;42.490;26.012;2022-12-29T16:11:03;119.40;;;80.15;;
19776;SDS011;10047;42.490;26.012;2022-12-29T16:13:52;109.30;;;71.93;;
19776;SDS011;10047;42.490;26.012;2022-12-29T16:16:25;122.85;;;73.45;;
19776;SDS011;10047;42.490;26.012;2022-12-29T16:18:56;120.13;;;75.97;;
19776;SDS011;10047;42.490;26.012;2022-12-29T16:21:26;118.45;;;74.82;;
19776;SDS011;10047;42.490;26.012;2022-12-29T16:23:55;70.55;;;45.53;;
19776;SDS011;10047;42.490;26.012;2022-12-29T16:26:25;110.65;;;69.25;;
19776;SDS011;10047;42.490;26.012;2022-12-29T16:28:51;110.20;;;73.47;;
19776;SDS011;10047;42.490;26.012;2022-12-29T16:31:22;137.02;;;87.60;;
19776;SDS011;10047;42.490;26.012;2022-12-29T16:34:19;143.27;;;92.68;;
19776;SDS011;10047;42.490;26.012;2022-12-29T16:36:52;133.68;;;90.93;;
19776;SDS011;10047;42.490;26.012;2022-12-29T16:41:50;133.68;;;93.63;;
19776;SDS011;10047;42.490;26.012;2022-12-29T16:49:27;157.98;;;107.43;;
19776;SDS011;10047;42.490;26.012;2022-12-29T16:51:54;149.13;;;100.93;;
19776;SDS011;10047;42.490;26.012;2022-12-29T16:54:32;145.10;;;99.05;;
19776;SDS011;10047;42.490;26.012;2022-12-29T16:57:01;147.70;;;102.03;;
19776;SDS011;10047;42.490;26.012;2022-12-29T17:01:57;152.20;;;103.63;;
19776;SDS011;10047;42.490;26.012;2022-12-29T17:04:24;154.48;;;107.72;;
19776;SDS011;10047;42.490;26.012;2022-12-29T17:06:49;172.02;;;117.50;;
19776;SDS011;10047;42.490;26.012;2022-12-29T17:09:22;163.23;;;112.20;;
19776;SDS011;10047;42.490;26.012;2022-12-29T17:11:50;192.02;;;126.45;;
19776;SDS011;10047;42.490;26.012;2022-12-29T17:14:30;205.90;;;136.98;;